Airfield :







YOU CAN JOIN US ON...

 
LOGIN :

Register | Disclaimer

   EN    FR    IT 

 









Legend :    VFR   Marginal VFR   IFR   Intensive IFR   Very Intensive IFR
Visi :
Ceiling :
>= 8 km
>= 3000ft
5 to 8 km
1000 to 3000 ft
1500m to 5 km
500 to 1000 ft
800 to 1500m
200 to 500 ft
< 800m
< 200 ft
Symbols :   Thunderstorms  Fog  Heavy snow  Heavy precipitations  Wind > 20 kt







- Airport Elevation : 118 ft
- IATA code : YUL


CYUL - Montréal - Pierre-Elliott-Trudeau Int.

CURRENT METAR :
  • 230600Z 23016G21KT 15SM OVC075 25/17 A2971 RMK AC8 SLP060 DENSITY ALT 1600FT

EXPIRED METARs :
  • 230500Z 23015G21KT 15SM OVC085 25/17 A2972 RMK AC8 SLP066 DENSITY ALT 1600FT
  • 230400Z 22016KT 15SM BKN090 OVC120 25/17 A2973 RMK AC6AC2 SLP069 DENSITY ALT 1600FT

TAF TAF CYUL
Valid from the 23 at 06:00 until the 24 at 06:00 UTC


230542Z 2306/2406 23012G22KT P6SM BKN080 OVC200
TEMPO 2306/2312 P6SM -SHRA
FM231200 25018G28KT P6SM SCT030 OVC070
TEMPO 2312/2314 P6SM -SHRA BKN020 OVC040
FM231400 23012G22KT P6SM OVC030
TEMPO 2314/2316 5SM -RA BR OVC020
FM231600 23012G22KT 5SM -RA BR SCT008 OVC020
TEMPO 2316/2322 P6SM NSW OVC025
FM232200 22010G20KT 4SM -SHRA BR SCT008 OVC020
PROB30 2322/2401 VRB20G35KT 2SM +TSRA BR OVC008CB
FM240300 23010KT 5SM -SHRA BR OVC008 RMK NXT FCST BY 230900Z
ATIS : ENG : +1 514-633-3037 FRA : +1 514-633-3034
No reported NOTAMs for that airfield.



MET'MAP, your aeronautical weather chart ! - Copyright ORBIFLY December 2007 - Disclaimer

ORBIFLY MET'MAP TEAM :

Programming & Development : Alexandra Zaïnal
Concept & Development : Baudouin d'Aumeries
Co-Development & Prog : Marc-Olivier Méhu
Technical & hardware support : Manuel Goepfert

Contact : metmap@orbifly.com




SOURCES & CREDITS :

   NOAA